Time;durP1;ratioP1;P1;durP2;ratioP2;P2;SDS_P1;SDS_P2;PMS_P1;PMS_P2;Temp;Humidity;BMP_temperature;BMP_pressure;BME280_temperature;BME280_humidity;BME280_pressure;Samples;Min_cycle;Max_cycle;Signal;HPM_P1;HPM_P2
2021/09/23 00:00:55;;;;;;;2.83;2.63;;;5.90;99.90;5.40;97538.00;;;;5069030;28;20200;-70
2021/09/23 00:03:57;;;;;;;3.97;2.70;;;5.90;99.90;5.10;97533.00;;;;5099739;28;20432;-69
2021/09/23 00:06:46;;;;;;;3.77;2.63;;;5.90;99.90;5.20;97535.00;;;;5083314;28;20199;-70
2021/09/23 00:09:36;;;;;;;7.47;3.57;;;5.80;99.90;5.20;97525.00;;;;5078946;28;20224;-70
2021/09/23 00:12:25;;;;;;;4.33;2.57;;;5.80;99.90;5.10;97533.00;;;;5069522;28;20228;-69
2021/09/23 00:15:16;;;;;;;5.73;3.43;;;5.80;99.90;5.30;97516.00;;;;5070195;28;20294;-69
2021/09/23 00:18:09;;;;;;;3.53;2.43;;;5.80;99.90;5.20;97520.00;;;;5071685;28;20207;-70
2021/09/23 00:21:02;;;;;;;3.97;3.17;;;5.80;99.90;5.30;97525.00;;;;5070686;28;20221;-69
2021/09/23 00:23:51;;;;;;;3.43;2.57;;;5.80;99.90;5.20;97525.00;;;;5068772;28;20713;-69
2021/09/23 00:26:40;;;;;;;4.13;2.80;;;5.80;99.90;5.20;97530.00;;;;5069145;28;20208;-69
2021/09/23 00:29:29;;;;;;;4.87;2.90;;;5.70;99.90;5.40;97524.00;;;;5067173;28;20342;-70
2021/09/23 00:32:19;;;;;;;5.23;3.30;;;5.70;99.90;5.40;97531.00;;;;5067738;28;20224;-70
2021/09/23 00:35:10;;;;;;;4.10;2.40;;;5.80;99.90;5.40;97527.00;;;;5085037;28;20214;-69
2021/09/23 00:37:59;;;;;;;4.37;2.50;;;5.80;99.90;5.30;97531.00;;;;5075960;28;20630;-69
2021/09/23 00:40:48;;;;;;;3.33;3.03;;;5.80;99.90;5.40;97535.00;;;;5066343;28;20271;-69
2021/09/23 00:43:37;;;;;;;3.37;2.70;;;5.80;99.90;5.20;97537.00;;;;5068972;28;20215;-70
2021/09/23 00:46:26;;;;;;;4.30;2.77;;;5.80;99.90;4.90;97544.00;;;;5067940;28;20242;-70
2021/09/23 00:49:17;;;;;;;2.53;2.10;;;5.70;99.90;5.10;97538.00;;;;5066556;28;20211;-69
2021/09/23 00:52:06;;;;;;;5.57;2.77;;;5.70;99.90;5.20;97534.00;;;;5067489;28;20212;-70
2021/09/23 00:54:56;;;;;;;5.27;3.00;;;5.60;99.90;5.20;97538.00;;;;5067259;28;20302;-71
2021/09/23 00:57:46;;;;;;;4.23;2.93;;;5.70;99.90;4.90;97524.00;;;;5068134;28;20252;-69
2021/09/23 01:00:35;;;;;;;7.73;2.77;;;5.60;99.90;4.90;97523.00;;;;5064960;28;20774;-69
2021/09/23 01:03:24;;;;;;;12.13;3.17;;;5.60;99.90;4.80;97521.00;;;;5067868;28;20223;-69
2021/09/23 01:06:14;;;;;;;4.13;2.60;;;5.50;99.90;4.70;97522.00;;;;5066391;28;20212;-70
2021/09/23 01:09:03;;;;;;;4.53;2.60;;;5.50;99.90;4.70;97505.00;;;;5068046;28;20215;-70
2021/09/23 01:11:52;;;;;;;6.87;2.70;;;5.50;99.90;4.70;97522.00;;;;5066969;28;20391;-69
2021/09/23 01:14:42;;;;;;;5.07;3.10;;;5.40;99.90;5.00;97514.00;;;;5065257;28;20227;-69
2021/09/23 01:17:31;;;;;;;3.53;2.43;;;5.40;99.90;5.20;97514.00;;;;5069946;28;20282;-69
2021/09/23 01:20:20;;;;;;;4.80;2.87;;;5.50;99.90;5.20;97505.00;;;;5069830;28;20208;-69
2021/09/23 01:23:10;;;;;;;4.70;3.27;;;5.60;99.90;5.20;97492.00;;;;5068811;28;20230;-69
2021/09/23 01:25:59;;;;;;;4.43;2.97;;;5.70;99.90;5.20;97498.00;;;;5070053;28;20207;-70
2021/09/23 01:28:48;;;;;;;5.57;2.87;;;5.70;99.90;5.20;97495.00;;;;5068566;28;20212;-70
2021/09/23 01:31:37;;;;;;;3.73;2.63;;;5.70;99.90;5.20;97488.00;;;;5080008;28;20228;-70
2021/09/23 01:34:26;;;;;;;4.93;2.83;;;5.70;99.90;5.20;97492.00;;;;5071596;28;20222;-70
2021/09/23 01:37:15;;;;;;;3.80;2.87;;;5.70;99.90;5.10;97472.00;;;;5069879;28;20711;-69
2021/09/23 01:40:07;;;;;;;3.63;2.77;;;5.60;99.90;5.00;97474.00;;;;5093314;28;20276;-69
2021/09/23 01:42:56;;;;;;;2.50;2.13;;;5.60;99.90;4.80;97470.00;;;;5092351;28;20231;-69
2021/09/23 01:45:46;;;;;;;3.73;2.63;;;5.50;99.90;4.80;97475.00;;;;5077590;28;20691;-69
2021/09/23 01:48:34;;;;;;;4.13;2.57;;;5.50;99.90;4.70;97479.00;;;;5066989;28;20234;-69
2021/09/23 01:51:23;;;;;;;4.33;3.70;;;5.40;99.90;4.70;97485.00;;;;5066190;28;20713;-69
2021/09/23 01:54:13;;;;;;;3.13;2.83;;;5.40;99.90;4.80;97480.00;;;;5068614;28;20216;-69
2021/09/23 01:57:03;;;;;;;4.13;2.47;;;5.30;99.90;4.70;97477.00;;;;5067225;28;20218;-69
2021/09/23 01:59:52;;;;;;;5.07;2.80;;;5.30;99.90;4.80;97468.00;;;;5065947;28;20211;-69
2021/09/23 02:02:41;;;;;;;4.00;3.03;;;5.30;99.90;4.80;97474.00;;;;5065082;28;20281;-69
2021/09/23 02:05:31;;;;;;;3.53;3.23;;;5.30;99.90;4.70;97467.00;;;;5065510;28;20208;-69
2021/09/23 02:08:20;;;;;;;5.43;3.17;;;5.30;99.90;4.80;97480.00;;;;5066511;28;20642;-69
2021/09/23 02:11:09;;;;;;;8.73;2.87;;;5.30;99.90;4.80;97477.00;;;;5063838;28;20609;-69
2021/09/23 02:13:59;;;;;;;5.17;3.10;;;5.30;99.90;4.90;97482.00;;;;5066447;28;20730;-69
2021/09/23 02:16:48;;;;;;;3.97;2.50;;;5.30;99.90;4.80;97484.00;;;;5065197;28;20218;-69
2021/09/23 02:19:37;;;;;;;6.40;3.13;;;5.30;99.90;4.80;97495.00;;;;5063483;28;20203;-69
2021/09/23 02:22:26;;;;;;;6.13;2.70;;;5.30;99.90;4.70;97496.00;;;;5065760;28;20216;-69
2021/09/23 02:25:15;;;;;;;5.40;3.07;;;5.30;99.90;4.80;97496.00;;;;5065892;28;20203;-70
2021/09/23 02:28:05;;;;;;;3.07;2.43;;;5.30;99.90;4.80;97503.00;;;;5066992;28;20231;-69
2021/09/23 02:30:56;;;;;;;4.73;3.10;;;5.30;99.90;4.70;97512.00;;;;5065153;28;20697;-69
2021/09/23 02:33:46;;;;;;;4.97;2.50;;;5.30;99.90;4.60;97490.00;;;;5065759;28;20223;-69
2021/09/23 02:36:35;;;;;;;3.57;2.80;;;5.30;99.90;4.70;97496.00;;;;5065734;28;20699;-69
2021/09/23 02:39:24;;;;;;;4.27;3.00;;;5.20;99.90;4.60;97496.00;;;;5066691;28;20211;-69
2021/09/23 02:42:13;;;;;;;5.53;3.10;;;5.20;99.90;4.60;97488.00;;;;5064672;28;20228;-68
2021/09/23 02:45:02;;;;;;;4.43;3.33;;;5.20;99.90;4.80;97492.00;;;;5066658;28;20290;-68
2021/09/23 02:47:53;;;;;;;7.47;3.50;;;5.20;99.90;4.80;97482.00;;;;5066607;28;20226;-68
2021/09/23 02:50:41;;;;;;;3.43;2.40;;;5.30;99.90;4.40;97475.00;;;;5085083;28;20600;-68
2021/09/23 02:53:30;;;;;;;5.27;2.50;;;5.20;99.90;4.20;97471.00;;;;5076199;28;20645;-70
2021/09/23 02:56:19;;;;;;;3.27;2.83;;;5.10;99.90;4.20;97468.00;;;;5065720;28;20283;-67
2021/09/23 02:59:08;;;;;;;4.20;3.00;;;5.00;99.90;4.40;97480.00;;;;5063341;28;20211;-70
2021/09/23 03:01:57;;;;;;;5.20;3.47;;;5.00;99.90;4.40;97478.00;;;;5065385;28;20224;-68
2021/09/23 03:04:47;;;;;;;5.80;3.00;;;5.00;99.90;4.40;97463.00;;;;5065840;28;20555;-69
2021/09/23 03:07:36;;;;;;;5.03;2.97;;;5.00;99.90;4.10;97461.00;;;;5067166;28;20819;-69
2021/09/23 03:10:25;;;;;;;7.90;2.83;;;4.90;99.90;4.00;97468.00;;;;5066416;28;20268;-68
2021/09/23 03:13:14;;;;;;;4.93;2.97;;;4.90;99.90;4.20;97462.00;;;;5067466;28;20251;-71
2021/09/23 03:16:04;;;;;;;4.13;2.50;;;4.80;99.90;4.40;97462.00;;;;5068455;28;20273;-69
2021/09/23 03:18:53;;;;;;;6.47;3.00;;;4.90;99.90;4.40;97465.00;;;;5067185;28;20430;-68
2021/09/23 03:21:43;;;;;;;2.50;2.30;;;4.90;99.90;4.30;97469.00;;;;5065927;28;20613;-69
2021/09/23 03:24:32;;;;;;;5.30;3.23;;;4.90;99.90;4.20;97469.00;;;;5066974;28;20203;-69
2021/09/23 03:27:21;;;;;;;5.80;2.93;;;4.90;99.90;4.10;97472.00;;;;5066116;28;20588;-69
2021/09/23 03:30:11;;;;;;;3.07;2.70;;;4.80;99.90;4.10;97468.00;;;;5066335;28;20287;-70
2021/09/23 03:33:00;;;;;;;4.97;2.77;;;4.80;99.90;4.10;97473.00;;;;5065064;28;20523;-70
2021/09/23 03:35:49;;;;;;;3.80;2.73;;;4.80;99.90;4.00;97472.00;;;;5074601;28;20333;-70
2021/09/23 03:38:41;;;;;;;3.97;3.43;;;4.70;99.90;4.10;97470.00;;;;5068702;28;21026;-70
2021/09/23 03:41:30;;;;;;;3.47;2.70;;;4.70;99.90;4.20;97472.00;;;;5067949;28;20273;-70
2021/09/23 03:44:19;;;;;;;9.87;3.80;;;4.80;99.90;4.20;97470.00;;;;5070207;28;20211;-70
2021/09/23 03:47:08;;;;;;;5.83;3.47;;;4.80;99.90;4.00;97467.00;;;;5070019;28;20430;-69
2021/09/23 03:49:57;;;;;;;4.27;2.93;;;4.70;99.90;4.00;97465.00;;;;5068457;28;20210;-70
2021/09/23 03:52:47;;;;;;;5.53;3.70;;;4.70;99.90;4.00;97479.00;;;;5068621;28;20450;-70
2021/09/23 03:55:37;;;;;;;5.03;2.60;;;4.70;99.90;4.00;97474.00;;;;5068012;28;20551;-70
2021/09/23 03:58:26;;;;;;;3.53;3.23;;;4.70;99.90;4.10;97482.00;;;;5069457;28;20426;-68
2021/09/23 04:01:15;;;;;;;2.67;2.47;;;4.70;99.90;4.10;97474.00;;;;5068357;28;20426;-68
2021/09/23 04:04:04;;;;;;;4.73;3.27;;;4.70;99.90;4.20;97479.00;;;;5071022;27;20445;-69
2021/09/23 04:06:53;;;;;;;3.23;2.77;;;4.80;99.90;4.30;97474.00;;;;5077635;28;21108;-68
2021/09/23 04:09:42;;;;;;;3.97;3.57;;;4.80;99.90;4.10;97464.00;;;;5082049;28;20438;-70
2021/09/23 04:12:32;;;;;;;4.37;3.83;;;4.80;99.90;4.10;97460.00;;;;5069698;28;20446;-69
2021/09/23 04:15:21;;;;;;;4.00;3.70;;;4.70;99.90;4.20;97457.00;;;;5069764;28;20839;-67
2021/09/23 04:18:15;;;;;;;2.97;2.60;;;4.70;99.90;4.10;97461.00;;;;5070952;28;20222;-69
2021/09/23 04:21:04;;;;;;;6.17;3.37;;;4.70;99.90;4.20;97469.00;;;;5071195;28;20312;-70
2021/09/23 04:23:53;;;;;;;3.33;3.03;;;4.70;99.90;4.00;97464.00;;;;5070831;28;20430;-69
2021/09/23 04:26:42;;;;;;;7.10;3.17;;;4.70;99.90;3.90;97463.00;;;;5065809;28;20203;-70
2021/09/23 04:29:32;;;;;;;3.90;3.50;;;4.60;99.90;3.90;97456.00;;;;5064420;28;20585;-69
2021/09/23 04:32:22;;;;;;;10.87;4.53;;;4.60;99.90;3.80;97442.00;;;;5067109;28;20813;-69
2021/09/23 04:35:11;;;;;;;5.07;4.03;;;4.50;99.90;3.80;97452.00;;;;5075691;28;20480;-69
2021/09/23 04:38:00;;;;;;;4.97;3.87;;;4.50;99.90;4.00;97452.00;;;;5067017;28;20215;-69
2021/09/23 04:40:50;;;;;;;5.23;3.50;;;4.50;99.90;4.00;97466.00;;;;5065233;28;20230;-69
2021/09/23 04:43:40;;;;;;;3.60;3.20;;;4.50;99.90;4.20;97472.00;;;;5068787;28;20434;-69
2021/09/23 04:46:31;;;;;;;6.50;3.50;;;4.60;99.90;4.10;97463.00;;;;5068368;28;20204;-69
2021/09/23 04:49:20;;;;;;;3.17;2.87;;;4.60;99.90;3.90;97462.00;;;;5071586;28;20246;-69
2021/09/23 04:52:09;;;;;;;5.77;3.80;;;4.60;99.90;3.90;97465.00;;;;5072880;28;20443;-69
2021/09/23 04:54:58;;;;;;;3.37;3.07;;;4.60;99.90;4.00;97460.00;;;;5071671;28;20470;-69
2021/09/23 04:57:47;;;;;;;3.83;3.27;;;4.50;99.90;4.00;97457.00;;;;5069241;28;21041;-69
2021/09/23 05:00:35;;;;;;;5.97;3.23;;;4.60;99.90;4.00;97473.00;;;;5069005;28;20929;-68
2021/09/23 05:03:26;;;;;;;4.60;3.33;;;4.60;99.90;4.00;97459.00;;;;5068485;28;20833;-69
2021/09/23 05:06:15;;;;;;;3.27;2.77;;;4.60;99.90;4.00;97468.00;;;;5075281;28;20434;-69
2021/09/23 05:09:04;;;;;;;3.30;3.00;;;4.60;99.90;4.00;97457.00;;;;5066487;28;20429;-69
2021/09/23 05:11:53;;;;;;;2.97;2.70;;;4.60;99.90;4.10;97467.00;;;;5065700;28;20585;-69
2021/09/23 05:14:42;;;;;;;4.40;2.83;;;4.70;99.90;4.10;97459.00;;;;5065719;28;20854;-69
2021/09/23 05:17:31;;;;;;;4.37;3.70;;;4.70;99.90;4.10;97461.00;;;;5068494;28;20426;-69
2021/09/23 05:20:21;;;;;;;3.43;3.13;;;4.70;99.90;4.20;97482.00;;;;5065491;28;20431;-69
2021/09/23 05:23:10;;;;;;;5.87;4.20;;;4.70;99.90;4.30;97473.00;;;;5067646;28;21027;-69
2021/09/23 05:25:59;;;;;;;5.53;3.10;;;4.80;99.90;4.30;97464.00;;;;5066972;28;20951;-69
2021/09/23 05:28:48;;;;;;;4.57;3.20;;;4.80;99.90;4.20;97456.00;;;;5066751;28;20423;-69
2021/09/23 05:31:37;;;;;;;4.60;3.27;;;4.80;99.90;4.30;97472.00;;;;5065012;28;20447;-69
2021/09/23 05:34:26;;;;;;;3.97;2.93;;;4.80;99.90;4.20;97467.00;;;;5074758;28;20435;-69
2021/09/23 05:37:16;;;;;;;3.53;3.23;;;4.80;99.90;4.30;97472.00;;;;5085346;28;20223;-68
2021/09/23 05:40:07;;;;;;;5.60;2.53;;;4.80;99.90;4.40;97480.00;;;;5065730;28;20465;-69
2021/09/23 05:42:56;;;;;;;3.30;3.00;;;4.90;99.90;4.30;97474.00;;;;5066067;28;20462;-69
2021/09/23 05:45:45;;;;;;;8.17;2.93;;;4.90;99.90;4.20;97469.00;;;;5066088;28;20434;-69
2021/09/23 05:48:34;;;;;;;3.27;2.70;;;4.90;99.90;4.30;97461.00;;;;5068706;28;20898;-69
2021/09/23 05:51:23;;;;;;;3.40;2.90;;;4.90;99.90;4.60;97466.00;;;;5069809;28;20488;-69
2021/09/23 05:54:14;;;;;;;3.97;3.53;;;5.00;99.90;4.80;97471.00;;;;5074883;28;20222;-69
2021/09/23 05:57:03;;;;;;;6.27;3.27;;;5.10;99.90;4.90;97469.00;;;;5074971;28;20506;-69
2021/09/23 05:59:52;;;;;;;3.13;2.47;;;5.20;99.90;4.90;97467.00;;;;5072974;28;20206;-68
2021/09/23 06:02:42;;;;;;;3.43;2.87;;;5.30;99.90;5.00;97457.00;;;;5068361;28;20223;-68
2021/09/23 06:05:31;;;;;;;3.80;3.03;;;5.40;99.90;5.00;97450.00;;;;5068682;28;20207;-68
2021/09/23 06:08:20;;;;;;;4.90;3.43;;;5.50;99.90;5.10;97459.00;;;;5069722;28;20675;-70
2021/09/23 06:11:11;;;;;;;4.80;3.07;;;5.50;99.90;5.50;97472.00;;;;5071866;28;20785;-69
2021/09/23 06:14:00;;;;;;;7.40;3.10;;;5.70;99.90;5.80;97461.00;;;;5071250;28;21935;-69
2021/09/23 06:16:49;;;;;;;6.33;3.97;;;5.80;99.90;5.90;97457.00;;;;5066368;28;20227;-69
2021/09/23 06:19:38;;;;;;;5.67;3.13;;;6.00;99.90;5.90;97459.00;;;;5066268;28;20226;-68
2021/09/23 06:22:27;;;;;;;5.40;3.10;;;6.20;99.90;5.80;97454.00;;;;5069790;28;20349;-69
2021/09/23 06:25:16;;;;;;;9.77;2.93;;;6.20;99.90;5.90;97445.00;;;;5067899;28;20621;-70
2021/09/23 06:28:06;;;;;;;3.53;2.60;;;6.30;99.90;5.90;97441.00;;;;5068545;28;20732;-69
2021/09/23 06:30:56;;;;;;;4.27;2.90;;;6.30;99.90;5.80;97446.00;;;;5061608;28;20214;-68
2021/09/23 06:33:45;;;;;;;3.73;3.23;;;6.40;99.90;5.90;97443.00;;;;5067548;28;20215;-70
2021/09/23 06:36:35;;;;;;;6.60;2.87;;;6.40;99.90;6.00;97452.00;;;;5065442;28;20233;-70
2021/09/23 06:39:24;;;;;;;6.07;2.93;;;6.40;99.90;6.10;97438.00;;;;5070524;28;20904;-69
2021/09/23 06:42:16;;;;;;;5.70;3.00;;;7.00;99.90;6.30;97427.00;;;;5070285;28;20686;-69
2021/09/23 06:45:08;;;;;;;6.03;3.13;;;6.60;99.90;6.70;97431.00;;;;5067515;28;21212;-68
2021/09/23 06:47:57;;;;;;;3.83;2.87;;;6.80;99.90;6.90;97427.00;;;;5068361;28;20227;-70
2021/09/23 06:50:46;;;;;;;6.53;3.30;;;6.90;99.90;7.10;97423.00;;;;5066412;28;20749;-71
2021/09/23 06:53:35;;;;;;;6.17;3.33;;;7.10;99.90;7.20;97432.00;;;;5071600;28;20433;-68
2021/09/23 06:56:24;;;;;;;7.30;3.17;;;7.30;99.90;7.40;97432.00;;;;5070077;28;20305;-72
2021/09/23 06:59:12;;;;;;;5.20;3.90;;;7.50;99.90;7.40;97422.00;;;;5072014;28;20210;-72
2021/09/23 07:02:03;;;;;;;3.70;3.23;;;7.60;99.90;7.70;97426.00;;;;5071211;28;20664;-71
2021/09/23 07:04:52;;;;;;;5.17;3.80;;;7.80;99.90;7.90;97427.00;;;;5067424;28;20208;-71
2021/09/23 07:07:41;;;;;;;5.63;3.47;;;7.90;99.90;8.10;97424.00;;;;5069052;28;20219;-69
2021/09/23 07:10:30;;;;;;;8.63;3.97;;;8.10;99.90;8.20;97424.00;;;;5075539;28;20199;-71
2021/09/23 07:13:20;;;;;;;5.87;3.60;;;7.70;99.90;8.40;97418.00;;;;5076600;28;20634;-72
2021/09/23 07:16:09;;;;;;;9.63;3.63;;;8.30;99.90;8.80;97416.00;;;;5072209;28;20232;-71
2021/09/23 07:19:00;;;;;;;5.60;3.57;;;8.60;99.90;9.20;97422.00;;;;5075049;28;20203;-71
2021/09/23 07:21:50;;;;;;;5.60;4.40;;;8.90;99.90;9.40;97420.00;;;;5077188;28;20419;-70
2021/09/23 07:24:39;;;;;;;8.80;3.60;;;9.10;99.90;9.50;97424.00;;;;5076849;28;20696;-71
2021/09/23 07:27:28;;;;;;;9.07;3.63;;;9.40;99.90;9.60;97427.00;;;;5079415;28;20192;-71
2021/09/23 07:30:17;;;;;;;4.83;3.60;;;9.50;99.90;9.80;97428.00;;;;5074434;28;20838;-70
2021/09/23 07:33:06;;;;;;;5.10;3.40;;;9.70;99.90;9.90;97421.00;;;;5073466;28;20610;-71
2021/09/23 07:35:57;;;;;;;4.90;3.70;;;9.90;99.90;10.10;97414.00;;;;5075923;28;20228;-71
2021/09/23 07:38:47;;;;;;;7.47;3.13;;;10.00;99.90;10.40;97413.00;;;;5075768;28;20256;-70
2021/09/23 07:41:37;;;;;;;4.80;3.70;;;10.20;99.90;10.50;97425.00;;;;5069671;28;20855;-72
2021/09/23 07:44:27;;;;;;;5.43;3.07;;;10.40;99.90;10.40;97419.00;;;;5076143;28;20621;-69
2021/09/23 07:47:16;;;;;;;5.63;2.97;;;10.60;99.90;10.40;97406.00;;;;5072545;28;21889;-70
2021/09/23 07:50:08;;;;;;;5.20;3.30;;;10.60;99.90;10.70;97407.00;;;;5073459;28;21122;-71
2021/09/23 07:52:58;;;;;;;8.50;3.17;;;10.80;99.90;10.90;97406.00;;;;5073416;28;20232;-71
2021/09/23 07:55:47;;;;;;;5.57;3.47;;;10.90;99.90;11.20;97412.00;;;;5073220;28;20219;-71
2021/09/23 07:58:36;;;;;;;4.83;3.37;;;11.00;99.90;11.40;97407.00;;;;5072740;28;20203;-70
2021/09/23 08:01:25;;;;;;;5.13;3.03;;;11.20;99.90;11.50;97401.00;;;;5077762;28;21252;-72
2021/09/23 08:04:14;;;;;;;4.27;2.47;;;11.40;99.90;11.60;97405.00;;;;5075212;28;20204;-71
2021/09/23 08:07:04;;;;;;;9.57;4.40;;;11.60;99.90;11.90;97394.00;;;;5069459;28;20684;-71
2021/09/23 08:09:54;;;;;;;4.13;3.33;;;11.70;99.90;12.10;97397.00;;;;5072674;28;20277;-72
2021/09/23 08:12:43;;;;;;;6.20;3.20;;;11.90;99.90;12.20;97399.00;;;;5072843;28;20610;-72
2021/09/23 08:15:32;;;;;;;6.23;2.73;;;12.10;99.90;12.40;97395.00;;;;5072814;28;20227;-72
2021/09/23 08:18:22;;;;;;;6.87;3.30;;;12.20;99.90;12.60;97376.00;;;;5073620;28;20257;-72
2021/09/23 08:21:13;;;;;;;4.93;2.73;;;12.40;99.90;12.90;97388.00;;;;5074621;28;20683;-72
2021/09/23 08:24:02;;;;;;;5.87;3.03;;;12.70;99.90;12.90;97396.00;;;;5069582;28;20578;-70
2021/09/23 08:26:52;;;;;;;9.00;3.20;;;12.70;99.90;13.10;97389.00;;;;5073606;28;20630;-71
2021/09/23 08:29:43;;;;;;;3.53;2.70;;;13.00;99.90;13.40;97387.00;;;;5073089;28;20212;-73
2021/09/23 08:32:32;;;;;;;6.60;3.17;;;13.10;99.90;14.10;97374.00;;;;5073714;28;20237;-73
2021/09/23 08:35:22;;;;;;;2.93;2.60;;;13.40;99.90;14.40;97384.00;;;;5072217;28;20929;-72
2021/09/23 08:38:12;;;;;;;5.87;2.77;;;13.70;99.90;14.70;97378.00;;;;5070524;28;20381;-72
2021/09/23 08:41:01;;;;;;;5.77;2.50;;;14.00;99.90;14.90;97368.00;;;;5069213;28;20200;-72
2021/09/23 08:43:54;;;;;;;3.47;2.83;;;14.30;99.90;15.10;97375.00;;;;5075639;28;20215;-72
2021/09/23 08:46:44;;;;;;;5.60;2.60;;;14.50;99.90;15.40;97376.00;;;;5066917;28;20208;-72
2021/09/23 08:49:33;;;;;;;4.10;2.10;;;13.00;99.90;15.60;97376.00;;;;5068966;28;20208;-72
2021/09/23 08:52:24;;;;;;;4.30;2.40;;;14.40;99.90;15.80;97373.00;;;;5076872;28;20313;-71
2021/09/23 08:55:22;;;;;;;6.50;2.80;;;15.20;99.90;16.00;97366.00;;;;5070445;28;20196;-71
2021/09/23 08:58:12;;;;;;;5.00;2.40;;;15.40;99.90;16.20;97360.00;;;;5069583;28;20251;-72
2021/09/23 09:01:06;;;;;;;3.50;2.90;;;15.60;99.90;16.40;97365.00;;;;5068968;28;20211;-71
2021/09/23 09:04:05;;;;;;;4.33;2.07;;;14.70;99.90;16.60;97359.00;;;;5071887;28;20207;-70
2021/09/23 09:06:55;;;;;;;7.83;2.60;;;16.00;99.90;16.80;97360.00;;;;5071699;28;20200;-72
2021/09/23 09:09:45;;;;;;;4.00;2.33;;;16.20;99.90;17.00;97357.00;;;;5072609;28;20208;-72
2021/09/23 09:12:34;;;;;;;5.13;2.17;;;16.40;99.90;16.60;97362.00;;;;5071954;28;20230;-72
2021/09/23 09:15:33;;;;;;;3.60;2.30;;;16.50;99.90;16.50;97350.00;;;;5075052;27;20204;-71
2021/09/23 09:18:24;;;;;;;2.33;1.83;;;16.60;99.90;16.80;97352.00;;;;5074340;28;20224;-72
2021/09/23 09:21:16;;;;;;;3.27;1.80;;;16.70;99.90;17.30;97347.00;;;;5073800;28;20200;-70
2021/09/23 09:24:05;;;;;;;3.93;1.90;;;16.80;99.90;17.40;97346.00;;;;5078659;28;20207;-69
2021/09/23 09:26:54;;;;;;;5.23;2.23;;;17.00;99.90;17.30;97347.00;;;;5073922;28;20200;-72
2021/09/23 09:29:55;;;;;;;3.20;2.30;;;17.00;99.90;17.90;97342.00;;;;5078612;28;20342;-71
2021/09/23 09:32:47;;;;;;;3.97;2.27;;;17.30;99.90;18.10;97342.00;;;;5078537;28;20222;-71
2021/09/23 09:35:38;;;;;;;2.83;2.03;;;17.50;99.90;18.50;97333.00;;;;5075521;28;20740;-71
2021/09/23 09:38:28;;;;;;;4.10;1.73;;;17.60;99.90;18.70;97339.00;;;;5072612;28;20275;-72
2021/09/23 09:41:17;;;;;;;5.03;2.20;;;17.90;99.90;18.80;97341.00;;;;5073038;28;20312;-71
2021/09/23 09:44:09;;;;;;;2.10;1.53;;;18.10;99.90;19.00;97338.00;;;;5068979;28;20302;-71
2021/09/23 09:47:00;;;;;;;4.43;1.73;;;18.30;99.10;19.00;97337.00;;;;5073263;28;20282;-72
2021/09/23 09:49:49;;;;;;;1.80;1.53;;;18.50;95.50;19.30;97331.00;;;;5071028;28;20244;-71
2021/09/23 09:52:41;;;;;;;4.83;2.13;;;18.60;95.10;19.40;97332.00;;;;5069886;28;20369;-72
2021/09/23 09:55:32;;;;;;;3.90;2.10;;;18.80;93.50;19.60;97330.00;;;;5073492;28;20207;-71
2021/09/23 09:58:24;;;;;;;5.10;2.70;;;19.90;93.90;19.80;97316.00;;;;5070765;28;20227;-71
2021/09/23 10:01:13;;;;;;;6.10;2.57;;;19.00;93.80;19.70;97315.00;;;;5070389;28;20211;-71
2021/09/23 10:04:02;;;;;;;4.47;2.97;;;19.20;91.80;20.10;97309.00;;;;5069046;28;20207;-71
2021/09/23 10:06:57;;;;;;;7.33;3.37;;;19.30;92.20;20.30;97306.00;;;;5072387;28;20253;-71
2021/09/23 10:09:48;;;;;;;6.73;3.00;;;19.50;92.00;20.40;97313.00;;;;5071315;28;20263;-71
2021/09/23 10:12:40;;;;;;;11.83;3.00;;;19.60;90.60;20.60;97307.00;;;;5071895;28;20283;-71
2021/09/23 10:15:32;;;;;;;7.00;2.50;;;19.80;89.20;20.90;97306.00;;;;5075953;28;20204;-71
2021/09/23 10:18:22;;;;;;;8.83;2.73;;;20.00;88.10;20.80;97307.00;;;;5083710;28;20219;-71
2021/09/23 10:21:11;;;;;;;4.57;2.43;;;20.20;84.70;21.00;97293.00;;;;5080469;28;20206;-70
2021/09/23 10:24:01;;;;;;;4.13;2.17;;;20.30;83.00;21.30;97299.00;;;;5078163;28;20579;-71
2021/09/23 10:26:52;;;;;;;5.00;2.57;;;20.50;81.50;21.30;97290.00;;;;5089641;28;20588;-72
2021/09/23 10:29:41;;;;;;;6.67;2.90;;;20.60;79.70;21.20;97295.00;;;;5087175;28;20212;-71
2021/09/23 10:32:31;;;;;;;5.53;2.00;;;20.70;80.90;21.60;97294.00;;;;5074640;28;20249;-72
2021/09/23 10:35:22;;;;;;;4.70;2.17;;;20.80;79.70;21.80;97283.00;;;;5085708;28;20716;-72
2021/09/23 10:38:13;;;;;;;3.87;3.10;;;21.00;79.10;21.80;97268.00;;;;5085403;28;20877;-72
2021/09/23 10:41:03;;;;;;;3.53;2.40;;;21.20;76.60;22.20;97271.00;;;;5087294;28;20578;-73
2021/09/23 10:43:55;;;;;;;2.50;1.97;;;21.40;77.40;23.00;97270.00;;;;5081465;28;20200;-72
2021/09/23 10:46:45;;;;;;;3.03;1.90;;;21.70;77.00;22.90;97271.00;;;;5071260;28;20250;-72
2021/09/23 10:49:35;;;;;;;6.80;2.40;;;22.00;75.20;22.90;97268.00;;;;5083171;28;21329;-73
2021/09/23 10:52:30;;;;;;;4.87;1.73;;;22.20;74.20;23.20;97257.00;;;;5079017;28;20228;-72
2021/09/23 10:55:21;;;;;;;6.23;2.53;;;22.40;71.90;23.60;97256.00;;;;5083855;28;20280;-72
2021/09/23 10:58:13;;;;;;;6.67;2.80;;;22.70;73.30;24.20;97259.00;;;;5084934;28;20283;-72
2021/09/23 11:01:04;;;;;;;6.80;2.33;;;23.00;73.00;24.30;97254.00;;;;5089291;28;20207;-73
2021/09/23 11:03:55;;;;;;;7.17;2.17;;;23.30;72.20;24.60;97257.00;;;;5077081;28;20217;-73
2021/09/23 11:06:46;;;;;;;5.53;1.90;;;23.60;70.90;24.90;97249.00;;;;5076134;28;20309;-74
2021/09/23 11:09:36;;;;;;;5.23;2.40;;;23.90;68.70;24.70;97257.00;;;;5085506;28;20304;-73
2021/09/23 11:12:25;;;;;;;4.47;2.73;;;24.20;67.00;25.00;97254.00;;;;5085815;28;20318;-73
2021/09/23 11:15:16;;;;;;;3.23;1.90;;;24.40;67.10;25.40;97239.00;;;;5082765;28;20225;-73
2021/09/23 11:18:09;;;;;;;5.17;2.17;;;24.60;65.40;25.10;97232.00;;;;5084164;28;20205;-73
2021/09/23 11:21:00;;;;;;;2.87;1.97;;;24.80;63.90;24.60;97228.00;;;;5085363;28;20286;-73
2021/09/23 11:23:49;;;;;;;5.03;2.67;;;24.80;60.90;24.80;97227.00;;;;5096732;28;20204;-73
2021/09/23 11:26:39;;;;;;;6.97;2.67;;;24.70;60.50;25.10;97229.00;;;;5071857;28;20219;-72
2021/09/23 11:29:30;;;;;;;6.22;2.65;;;24.70;60.10;24.70;97224.00;;;;5084693;28;20226;-73
2021/09/23 11:32:20;;;;;;;3.60;2.00;;;24.80;59.00;25.70;97223.00;;;;5083720;28;20210;-73
2021/09/23 11:35:11;;;;;;;5.15;2.05;;;24.90;59.30;26.00;97224.00;;;;5094564;28;20208;-72
2021/09/23 11:38:00;;;;;;;3.00;1.65;;;25.20;58.60;26.50;97237.00;;;;5069874;28;20207;-72
2021/09/23 11:40:51;;;;;;;4.25;2.35;;;25.40;58.70;26.90;97237.00;;;;5070522;28;20255;-72
2021/09/23 11:43:40;;;;;;;7.40;2.22;;;25.80;59.20;26.80;97232.00;;;;5084493;28;20290;-71
2021/09/23 11:46:33;;;;;;;5.53;2.00;;;26.00;58.10;26.50;97222.00;;;;5083292;28;20192;-71
2021/09/23 11:49:23;;;;;;;4.07;2.03;;;26.30;56.70;23.50;97214.00;;;;5077220;28;20223;-72
2021/09/23 11:52:13;;;;;;;3.10;1.70;;;25.90;53.70;25.60;97208.00;;;;5080442;28;20248;-72
2021/09/23 11:55:03;;;;;;;2.53;1.38;;;25.60;55.60;26.70;97216.00;;;;5073605;28;20202;-71
2021/09/23 11:58:06;;;;;;;2.40;1.90;;;25.60;56.50;26.90;97206.00;;;;5082105;28;20300;-71
2021/09/23 12:00:55;;;;;;;3.20;2.05;;;25.90;56.60;27.70;97196.00;;;;5090206;28;20245;-71
2021/09/23 12:03:46;;;;;;;2.60;1.77;;;26.20;56.90;28.00;97190.00;;;;5084046;28;20205;-71
2021/09/23 12:06:34;;;;;;;2.80;2.35;;;26.50;56.30;27.80;97188.00;;;;5079333;28;20257;-70
2021/09/23 12:09:25;;;;;;;2.38;1.80;;;26.80;55.90;27.70;97178.00;;;;5081339;28;20233;-71
2021/09/23 12:12:15;;;;;;;3.25;2.08;;;27.10;54.40;28.50;97191.00;;;;5082354;28;20226;-71
2021/09/23 12:15:04;;;;;;;5.43;2.25;;;27.30;54.90;28.70;97181.00;;;;5081706;28;20454;-70
2021/09/23 12:17:59;;;;;;;6.00;2.20;;;27.50;54.50;28.10;97176.00;;;;5083166;28;20286;-69
2021/09/23 12:21:05;;;;;;;3.08;1.67;;;27.70;52.70;28.60;97167.00;;;;5082720;28;20540;-69
2021/09/23 12:23:56;;;;;;;3.83;2.50;;;27.70;53.40;29.30;97166.00;;;;5083539;28;20265;-71
2021/09/23 12:26:46;;;;;;;5.80;1.98;;;27.90;54.20;29.00;97165.00;;;;5080229;28;20234;-70
2021/09/23 12:29:35;;;;;;;2.42;2.20;;;28.00;53.00;29.20;97168.00;;;;5079788;28;21037;-70
2021/09/23 12:32:33;;;;;;;2.40;1.63;;;28.20;53.10;28.80;97150.00;;;;5080494;28;20268;-70
2021/09/23 12:35:23;;;;;;;3.55;2.03;;;28.20;50.20;29.60;97153.00;;;;5084861;28;20207;-71
2021/09/23 12:38:12;;;;;;;5.20;2.55;;;28.20;51.60;29.20;97150.00;;;;5076386;28;20351;-71
2021/09/23 12:41:01;;;;;;;2.50;1.75;;;28.30;51.00;28.90;97139.00;;;;5083335;28;20686;-72
2021/09/23 12:43:52;;;;;;;3.47;2.42;;;28.30;49.70;28.60;97129.00;;;;5087143;28;20207;-72